sensor_id;sensor_type;location;lat;lon;timestamp;P1;durP1;ratioP1;P2;durP2;ratioP2
58669;SDS011;44439;47.924;10.198;2023-04-25T00:02:20;3.08;;;1.88;;
58669;SDS011;44439;47.924;10.198;2023-04-25T00:05:06;3.55;;;2.17;;
58669;SDS011;44439;47.924;10.198;2023-04-25T00:07:52;2.35;;;1.60;;
58669;SDS011;44439;47.924;10.198;2023-04-25T00:10:38;2.92;;;1.90;;
58669;SDS011;44439;47.924;10.198;2023-04-25T00:13:23;3.17;;;2.00;;
58669;SDS011;44439;47.924;10.198;2023-04-25T00:16:10;2.72;;;2.00;;
58669;SDS011;44439;47.924;10.198;2023-04-25T00:18:56;3.83;;;2.08;;
58669;SDS011;44439;47.924;10.198;2023-04-25T00:21:44;4.18;;;2.08;;
58669;SDS011;44439;47.924;10.198;2023-04-25T00:24:31;3.83;;;1.92;;
58669;SDS011;44439;47.924;10.198;2023-04-25T00:27:17;2.83;;;2.10;;
58669;SDS011;44439;47.924;10.198;2023-04-25T00:30:03;4.95;;;1.98;;
58669;SDS011;44439;47.924;10.198;2023-04-25T00:32:49;3.70;;;2.10;;
58669;SDS011;44439;47.924;10.198;2023-04-25T00:35:35;4.22;;;2.05;;
58669;SDS011;44439;47.924;10.198;2023-04-25T00:38:20;5.35;;;2.00;;
58669;SDS011;44439;47.924;10.198;2023-04-25T00:41:07;3.88;;;1.90;;
58669;SDS011;44439;47.924;10.198;2023-04-25T00:43:53;4.75;;;2.42;;
58669;SDS011;44439;47.924;10.198;2023-04-25T00:46:40;4.25;;;2.40;;
58669;SDS011;44439;47.924;10.198;2023-04-25T00:49:26;2.22;;;1.83;;
58669;SDS011;44439;47.924;10.198;2023-04-25T00:52:11;3.65;;;2.20;;
58669;SDS011;44439;47.924;10.198;2023-04-25T00:54:57;4.40;;;2.22;;
58669;SDS011;44439;47.924;10.198;2023-04-25T00:57:43;6.57;;;2.30;;
58669;SDS011;44439;47.924;10.198;2023-04-25T01:00:29;3.65;;;2.40;;
58669;SDS011;44439;47.924;10.198;2023-04-25T01:03:15;3.00;;;2.08;;
58669;SDS011;44439;47.924;10.198;2023-04-25T01:06:02;5.07;;;1.88;;
58669;SDS011;44439;47.924;10.198;2023-04-25T01:08:48;3.78;;;2.05;;
58669;SDS011;44439;47.924;10.198;2023-04-25T01:11:33;3.70;;;2.85;;
58669;SDS011;44439;47.924;10.198;2023-04-25T01:14:19;4.03;;;2.25;;
58669;SDS011;44439;47.924;10.198;2023-04-25T01:17:05;2.95;;;1.98;;
58669;SDS011;44439;47.924;10.198;2023-04-25T01:19:52;4.68;;;2.10;;
58669;SDS011;44439;47.924;10.198;2023-04-25T01:22:38;3.05;;;2.00;;
58669;SDS011;44439;47.924;10.198;2023-04-25T01:25:24;5.68;;;2.58;;
58669;SDS011;44439;47.924;10.198;2023-04-25T01:28:10;3.92;;;2.03;;
58669;SDS011;44439;47.924;10.198;2023-04-25T01:30:56;5.75;;;2.38;;
58669;SDS011;44439;47.924;10.198;2023-04-25T01:33:42;3.92;;;2.38;;
58669;SDS011;44439;47.924;10.198;2023-04-25T01:36:27;4.63;;;2.15;;
58669;SDS011;44439;47.924;10.198;2023-04-25T01:39:13;2.28;;;1.92;;
58669;SDS011;44439;47.924;10.198;2023-04-25T01:41:59;5.07;;;2.40;;
58669;SDS011;44439;47.924;10.198;2023-04-25T01:44:45;4.30;;;2.70;;
58669;SDS011;44439;47.924;10.198;2023-04-25T01:47:30;4.28;;;2.10;;
58669;SDS011;44439;47.924;10.198;2023-04-25T01:50:17;3.65;;;2.38;;
58669;SDS011;44439;47.924;10.198;2023-04-25T01:53:04;3.20;;;2.20;;
58669;SDS011;44439;47.924;10.198;2023-04-25T01:55:50;5.60;;;2.10;;
58669;SDS011;44439;47.924;10.198;2023-04-25T01:58:35;3.47;;;2.30;;
58669;SDS011;44439;47.924;10.198;2023-04-25T02:01:21;3.08;;;1.88;;
58669;SDS011;44439;47.924;10.198;2023-04-25T02:04:07;3.38;;;2.45;;
58669;SDS011;44439;47.924;10.198;2023-04-25T02:06:52;4.20;;;2.22;;
58669;SDS011;44439;47.924;10.198;2023-04-25T02:09:38;4.28;;;2.25;;
58669;SDS011;44439;47.924;10.198;2023-04-25T02:12:23;4.05;;;2.25;;
58669;SDS011;44439;47.924;10.198;2023-04-25T02:15:11;3.75;;;2.28;;
58669;SDS011;44439;47.924;10.198;2023-04-25T02:17:57;4.47;;;2.33;;
58669;SDS011;44439;47.924;10.198;2023-04-25T02:20:43;5.90;;;2.55;;
58669;SDS011;44439;47.924;10.198;2023-04-25T02:23:29;4.25;;;2.40;;
58669;SDS011;44439;47.924;10.198;2023-04-25T02:26:15;4.68;;;2.70;;
58669;SDS011;44439;47.924;10.198;2023-04-25T02:29:01;3.85;;;2.58;;
58669;SDS011;44439;47.924;10.198;2023-04-25T02:31:46;6.70;;;2.65;;
58669;SDS011;44439;47.924;10.198;2023-04-25T02:34:32;6.00;;;2.60;;
58669;SDS011;44439;47.924;10.198;2023-04-25T02:37:17;4.25;;;2.45;;
58669;SDS011;44439;47.924;10.198;2023-04-25T02:40:03;4.53;;;2.40;;
58669;SDS011;44439;47.924;10.198;2023-04-25T02:42:49;7.40;;;2.30;;
58669;SDS011;44439;47.924;10.198;2023-04-25T02:45:35;4.07;;;2.25;;
58669;SDS011;44439;47.924;10.198;2023-04-25T02:48:21;4.60;;;2.65;;
58669;SDS011;44439;47.924;10.198;2023-04-25T02:51:06;4.40;;;2.53;;
58669;SDS011;44439;47.924;10.198;2023-04-25T02:53:52;5.72;;;2.33;;
58669;SDS011;44439;47.924;10.198;2023-04-25T02:56:38;5.40;;;2.58;;
58669;SDS011;44439;47.924;10.198;2023-04-25T02:59:23;5.65;;;2.45;;
58669;SDS011;44439;47.924;10.198;2023-04-25T03:02:09;4.13;;;2.13;;
58669;SDS011;44439;47.924;10.198;2023-04-25T03:04:55;3.85;;;2.63;;
58669;SDS011;44439;47.924;10.198;2023-04-25T03:07:40;5.93;;;3.10;;
58669;SDS011;44439;47.924;10.198;2023-04-25T03:10:26;4.55;;;2.75;;
58669;SDS011;44439;47.924;10.198;2023-04-25T03:13:12;3.65;;;2.40;;
58669;SDS011;44439;47.924;10.198;2023-04-25T03:15:57;5.45;;;3.08;;
58669;SDS011;44439;47.924;10.198;2023-04-25T03:18:43;5.78;;;2.88;;
58669;SDS011;44439;47.924;10.198;2023-04-25T03:21:29;3.75;;;2.53;;
58669;SDS011;44439;47.924;10.198;2023-04-25T03:24:17;5.35;;;2.22;;
58669;SDS011;44439;47.924;10.198;2023-04-25T03:27:02;6.10;;;2.70;;
58669;SDS011;44439;47.924;10.198;2023-04-25T03:29:48;4.90;;;2.45;;
58669;SDS011;44439;47.924;10.198;2023-04-25T03:32:34;5.85;;;2.85;;
58669;SDS011;44439;47.924;10.198;2023-04-25T03:35:20;5.28;;;2.70;;
58669;SDS011;44439;47.924;10.198;2023-04-25T03:38:06;4.60;;;2.20;;
58669;SDS011;44439;47.924;10.198;2023-04-25T03:40:51;5.40;;;2.30;;
58669;SDS011;44439;47.924;10.198;2023-04-25T03:43:37;4.50;;;2.50;;
58669;SDS011;44439;47.924;10.198;2023-04-25T03:46:22;4.80;;;2.33;;
58669;SDS011;44439;47.924;10.198;2023-04-25T03:49:08;4.97;;;2.70;;
58669;SDS011;44439;47.924;10.198;2023-04-25T03:51:54;3.15;;;2.50;;
58669;SDS011;44439;47.924;10.198;2023-04-25T03:54:39;3.53;;;2.22;;
58669;SDS011;44439;47.924;10.198;2023-04-25T03:57:25;3.58;;;2.40;;
58669;SDS011;44439;47.924;10.198;2023-04-25T04:00:11;5.47;;;2.35;;
58669;SDS011;44439;47.924;10.198;2023-04-25T04:02:57;2.97;;;2.20;;
58669;SDS011;44439;47.924;10.198;2023-04-25T04:05:43;5.75;;;2.30;;
58669;SDS011;44439;47.924;10.198;2023-04-25T04:08:28;6.00;;;2.30;;
58669;SDS011;44439;47.924;10.198;2023-04-25T04:11:14;4.18;;;2.10;;
58669;SDS011;44439;47.924;10.198;2023-04-25T04:14:06;3.95;;;2.00;;
58669;SDS011;44439;47.924;10.198;2023-04-25T04:16:51;4.82;;;2.50;;
58669;SDS011;44439;47.924;10.198;2023-04-25T04:19:37;5.35;;;2.20;;
58669;SDS011;44439;47.924;10.198;2023-04-25T04:22:23;5.53;;;2.20;;
58669;SDS011;44439;47.924;10.198;2023-04-25T04:25:09;6.32;;;2.10;;
58669;SDS011;44439;47.924;10.198;2023-04-25T04:27:56;4.32;;;1.77;;
58669;SDS011;44439;47.924;10.198;2023-04-25T04:30:42;1.90;;;1.55;;
58669;SDS011;44439;47.924;10.198;2023-04-25T04:33:31;4.07;;;1.95;;
58669;SDS011;44439;47.924;10.198;2023-04-25T04:36:17;6.20;;;2.10;;
58669;SDS011;44439;47.924;10.198;2023-04-25T04:39:05;4.13;;;2.53;;
58669;SDS011;44439;47.924;10.198;2023-04-25T04:41:51;2.85;;;2.08;;
58669;SDS011;44439;47.924;10.198;2023-04-25T04:44:37;4.50;;;1.73;;
58669;SDS011;44439;47.924;10.198;2023-04-25T04:47:24;4.00;;;2.10;;
58669;SDS011;44439;47.924;10.198;2023-04-25T04:50:11;4.05;;;1.95;;
58669;SDS011;44439;47.924;10.198;2023-04-25T04:52:56;4.07;;;2.20;;
58669;SDS011;44439;47.924;10.198;2023-04-25T04:55:42;4.22;;;2.00;;
58669;SDS011;44439;47.924;10.198;2023-04-25T04:58:28;3.53;;;2.13;;
58669;SDS011;44439;47.924;10.198;2023-04-25T05:01:15;3.75;;;2.10;;
58669;SDS011;44439;47.924;10.198;2023-04-25T05:04:01;3.92;;;2.08;;
58669;SDS011;44439;47.924;10.198;2023-04-25T05:06:47;3.78;;;1.83;;
58669;SDS011;44439;47.924;10.198;2023-04-25T05:09:33;6.80;;;2.30;;
58669;SDS011;44439;47.924;10.198;2023-04-25T05:12:19;5.55;;;2.08;;
58669;SDS011;44439;47.924;10.198;2023-04-25T05:15:05;5.13;;;2.15;;
58669;SDS011;44439;47.924;10.198;2023-04-25T05:17:51;3.85;;;1.92;;
58669;SDS011;44439;47.924;10.198;2023-04-25T05:20:36;4.55;;;2.30;;
58669;SDS011;44439;47.924;10.198;2023-04-25T05:23:22;4.50;;;2.75;;
58669;SDS011;44439;47.924;10.198;2023-04-25T05:26:08;3.30;;;2.10;;
58669;SDS011;44439;47.924;10.198;2023-04-25T05:28:58;3.63;;;2.17;;
58669;SDS011;44439;47.924;10.198;2023-04-25T05:31:45;2.95;;;2.33;;
58669;SDS011;44439;47.924;10.198;2023-04-25T05:34:30;4.47;;;2.20;;
58669;SDS011;44439;47.924;10.198;2023-04-25T05:37:16;3.65;;;2.20;;
58669;SDS011;44439;47.924;10.198;2023-04-25T05:40:02;4.82;;;2.13;;
58669;SDS011;44439;47.924;10.198;2023-04-25T05:42:51;5.30;;;2.15;;
58669;SDS011;44439;47.924;10.198;2023-04-25T05:45:37;5.10;;;2.17;;
58669;SDS011;44439;47.924;10.198;2023-04-25T05:48:23;5.22;;;2.40;;
58669;SDS011;44439;47.924;10.198;2023-04-25T05:51:09;5.13;;;2.40;;
58669;SDS011;44439;47.924;10.198;2023-04-25T05:53:54;5.60;;;1.85;;
58669;SDS011;44439;47.924;10.198;2023-04-25T05:56:40;4.22;;;2.20;;
58669;SDS011;44439;47.924;10.198;2023-04-25T05:59:26;2.95;;;1.88;;
58669;SDS011;44439;47.924;10.198;2023-04-25T06:02:11;5.90;;;2.20;;
58669;SDS011;44439;47.924;10.198;2023-04-25T06:04:57;3.92;;;2.00;;
58669;SDS011;44439;47.924;10.198;2023-04-25T06:07:43;3.13;;;1.98;;
58669;SDS011;44439;47.924;10.198;2023-04-25T06:10:29;3.95;;;1.90;;
58669;SDS011;44439;47.924;10.198;2023-04-25T06:13:14;5.35;;;1.90;;
58669;SDS011;44439;47.924;10.198;2023-04-25T06:16:00;3.55;;;1.70;;
58669;SDS011;44439;47.924;10.198;2023-04-25T06:18:46;5.10;;;1.98;;
58669;SDS011;44439;47.924;10.198;2023-04-25T06:21:32;4.78;;;1.73;;
58669;SDS011;44439;47.924;10.198;2023-04-25T06:24:17;4.05;;;1.80;;
58669;SDS011;44439;47.924;10.198;2023-04-25T06:27:03;3.88;;;1.98;;
58669;SDS011;44439;47.924;10.198;2023-04-25T06:29:48;8.00;;;1.98;;
58669;SDS011;44439;47.924;10.198;2023-04-25T06:32:34;2.92;;;1.70;;
58669;SDS011;44439;47.924;10.198;2023-04-25T06:35:20;2.78;;;1.58;;
58669;SDS011;44439;47.924;10.198;2023-04-25T06:38:06;3.83;;;1.58;;
58669;SDS011;44439;47.924;10.198;2023-04-25T06:40:51;4.13;;;1.80;;
58669;SDS011;44439;47.924;10.198;2023-04-25T06:43:37;2.28;;;1.40;;
58669;SDS011;44439;47.924;10.198;2023-04-25T06:46:23;2.85;;;1.85;;
58669;SDS011;44439;47.924;10.198;2023-04-25T06:49:08;2.85;;;1.48;;
58669;SDS011;44439;47.924;10.198;2023-04-25T06:51:54;3.70;;;1.40;;
58669;SDS011;44439;47.924;10.198;2023-04-25T06:54:40;5.07;;;1.65;;
58669;SDS011;44439;47.924;10.198;2023-04-25T06:57:26;4.63;;;1.40;;
58669;SDS011;44439;47.924;10.198;2023-04-25T07:00:11;4.10;;;1.60;;
58669;SDS011;44439;47.924;10.198;2023-04-25T07:02:58;2.75;;;1.50;;
58669;SDS011;44439;47.924;10.198;2023-04-25T07:05:43;3.22;;;1.42;;
58669;SDS011;44439;47.924;10.198;2023-04-25T07:08:31;4.20;;;1.75;;
58669;SDS011;44439;47.924;10.198;2023-04-25T07:11:16;5.07;;;1.50;;
58669;SDS011;44439;47.924;10.198;2023-04-25T07:14:02;3.25;;;1.48;;
58669;SDS011;44439;47.924;10.198;2023-04-25T07:16:48;5.20;;;1.60;;
58669;SDS011;44439;47.924;10.198;2023-04-25T07:19:34;4.28;;;1.50;;
58669;SDS011;44439;47.924;10.198;2023-04-25T07:22:20;3.17;;;2.15;;
58669;SDS011;44439;47.924;10.198;2023-04-25T07:25:06;2.97;;;1.55;;
58669;SDS011;44439;47.924;10.198;2023-04-25T07:27:52;3.08;;;1.58;;
58669;SDS011;44439;47.924;10.198;2023-04-25T07:30:37;4.10;;;1.45;;
58669;SDS011;44439;47.924;10.198;2023-04-25T07:33:23;2.92;;;1.13;;
58669;SDS011;44439;47.924;10.198;2023-04-25T07:36:09;5.07;;;2.28;;
58669;SDS011;44439;47.924;10.198;2023-04-25T07:38:54;5.00;;;1.60;;
58669;SDS011;44439;47.924;10.198;2023-04-25T07:41:40;4.85;;;1.63;;
58669;SDS011;44439;47.924;10.198;2023-04-25T07:44:25;3.25;;;1.85;;
58669;SDS011;44439;47.924;10.198;2023-04-25T07:47:11;4.25;;;1.70;;
58669;SDS011;44439;47.924;10.198;2023-04-25T07:49:57;3.10;;;1.20;;
58669;SDS011;44439;47.924;10.198;2023-04-25T07:52:43;4.28;;;1.20;;
58669;SDS011;44439;47.924;10.198;2023-04-25T07:55:28;4.18;;;1.20;;
58669;SDS011;44439;47.924;10.198;2023-04-25T07:58:14;2.63;;;1.40;;
58669;SDS011;44439;47.924;10.198;2023-04-25T08:01:00;4.72;;;1.45;;
58669;SDS011;44439;47.924;10.198;2023-04-25T08:03:46;5.05;;;1.38;;
58669;SDS011;44439;47.924;10.198;2023-04-25T08:06:31;2.58;;;1.70;;
58669;SDS011;44439;47.924;10.198;2023-04-25T08:09:18;2.75;;;1.33;;
58669;SDS011;44439;47.924;10.198;2023-04-25T08:12:03;4.30;;;1.70;;
58669;SDS011;44439;47.924;10.198;2023-04-25T08:14:49;3.05;;;1.60;;
58669;SDS011;44439;47.924;10.198;2023-04-25T08:17:35;2.55;;;1.58;;
58669;SDS011;44439;47.924;10.198;2023-04-25T08:20:21;2.83;;;1.70;;
58669;SDS011;44439;47.924;10.198;2023-04-25T08:23:07;5.47;;;1.55;;
58669;SDS011;44439;47.924;10.198;2023-04-25T08:25:52;2.85;;;1.15;;
58669;SDS011;44439;47.924;10.198;2023-04-25T08:28:38;4.75;;;1.65;;
58669;SDS011;44439;47.924;10.198;2023-04-25T08:31:24;2.28;;;1.10;;
58669;SDS011;44439;47.924;10.198;2023-04-25T08:34:10;2.80;;;1.15;;
58669;SDS011;44439;47.924;10.198;2023-04-25T08:36:56;1.88;;;1.10;;
58669;SDS011;44439;47.924;10.198;2023-04-25T08:39:42;2.00;;;1.17;;
58669;SDS011;44439;47.924;10.198;2023-04-25T08:42:27;7.72;;;3.35;;
58669;SDS011;44439;47.924;10.198;2023-04-25T08:45:14;4.10;;;1.65;;
58669;SDS011;44439;47.924;10.198;2023-04-25T08:47:59;2.88;;;1.15;;
58669;SDS011;44439;47.924;10.198;2023-04-25T08:50:53;3.72;;;1.42;;
58669;SDS011;44439;47.924;10.198;2023-04-25T08:53:40;5.40;;;1.63;;
58669;SDS011;44439;47.924;10.198;2023-04-25T08:56:28;3.17;;;1.42;;
58669;SDS011;44439;47.924;10.198;2023-04-25T08:59:13;4.57;;;1.70;;
58669;SDS011;44439;47.924;10.198;2023-04-25T09:02:00;4.20;;;1.30;;
58669;SDS011;44439;47.924;10.198;2023-04-25T09:04:45;2.50;;;1.30;;
58669;SDS011;44439;47.924;10.198;2023-04-25T09:07:31;5.07;;;1.40;;
58669;SDS011;44439;47.924;10.198;2023-04-25T09:10:17;2.72;;;1.30;;
58669;SDS011;44439;47.924;10.198;2023-04-25T09:13:07;3.00;;;1.30;;
58669;SDS011;44439;47.924;10.198;2023-04-25T09:15:54;6.00;;;1.77;;
58669;SDS011;44439;47.924;10.198;2023-04-25T09:18:41;3.88;;;1.48;;
58669;SDS011;44439;47.924;10.198;2023-04-25T09:21:27;1.88;;;1.17;;
58669;SDS011;44439;47.924;10.198;2023-04-25T09:24:12;2.05;;;1.25;;
58669;SDS011;44439;47.924;10.198;2023-04-25T09:26:58;1.40;;;0.82;;
58669;SDS011;44439;47.924;10.198;2023-04-25T09:29:44;3.42;;;1.10;;
58669;SDS011;44439;47.924;10.198;2023-04-25T09:32:29;1.98;;;0.90;;
58669;SDS011;44439;47.924;10.198;2023-04-25T09:35:25;1.13;;;0.77;;
58669;SDS011;44439;47.924;10.198;2023-04-25T09:38:12;1.67;;;0.80;;
58669;SDS011;44439;47.924;10.198;2023-04-25T09:40:59;2.65;;;0.90;;
58669;SDS011;44439;47.924;10.198;2023-04-25T09:43:46;2.15;;;0.90;;
58669;SDS011;44439;47.924;10.198;2023-04-25T09:46:34;1.85;;;1.08;;
58669;SDS011;44439;47.924;10.198;2023-04-25T09:49:21;2.80;;;1.20;;
58669;SDS011;44439;47.924;10.198;2023-04-25T09:52:07;1.88;;;1.02;;
58669;SDS011;44439;47.924;10.198;2023-04-25T09:54:53;1.15;;;0.98;;
58669;SDS011;44439;47.924;10.198;2023-04-25T09:57:39;1.73;;;0.80;;
58669;SDS011;44439;47.924;10.198;2023-04-25T10:00:25;1.65;;;0.90;;
58669;SDS011;44439;47.924;10.198;2023-04-25T10:03:11;1.30;;;0.80;;
58669;SDS011;44439;47.924;10.198;2023-04-25T10:06:01;1.42;;;0.50;;
58669;SDS011;44439;47.924;10.198;2023-04-25T10:08:49;1.20;;;0.57;;
58669;SDS011;44439;47.924;10.198;2023-04-25T10:11:36;0.90;;;0.55;;
58669;SDS011;44439;47.924;10.198;2023-04-25T10:14:22;0.88;;;0.60;;
58669;SDS011;44439;47.924;10.198;2023-04-25T10:17:09;1.23;;;0.57;;
58669;SDS011;44439;47.924;10.198;2023-04-25T10:19:56;0.70;;;0.70;;
58669;SDS011;44439;47.924;10.198;2023-04-25T10:22:44;1.73;;;1.17;;
58669;SDS011;44439;47.924;10.198;2023-04-25T10:25:30;7.60;;;4.47;;
58669;SDS011;44439;47.924;10.198;2023-04-25T10:28:16;5.45;;;3.05;;
58669;SDS011;44439;47.924;10.198;2023-04-25T10:33:48;1.42;;;0.80;;
58669;SDS011;44439;47.924;10.198;2023-04-25T10:36:34;0.98;;;0.80;;
58669;SDS011;44439;47.924;10.198;2023-04-25T10:39:23;2.85;;;0.80;;
58669;SDS011;44439;47.924;10.198;2023-04-25T10:42:10;1.60;;;0.75;;
58669;SDS011;44439;47.924;10.198;2023-04-25T10:45:06;2.08;;;0.90;;
58669;SDS011;44439;47.924;10.198;2023-04-25T10:47:52;0.52;;;0.40;;
58669;SDS011;44439;47.924;10.198;2023-04-25T10:50:38;1.67;;;0.70;;
58669;SDS011;44439;47.924;10.198;2023-04-25T10:53:25;3.67;;;1.88;;
58669;SDS011;44439;47.924;10.198;2023-04-25T11:01:52;0.20;;;0.20;;
58669;SDS011;44439;47.924;10.198;2023-04-25T11:04:40;1.52;;;0.82;;
58669;SDS011;44439;47.924;10.198;2023-04-25T11:07:28;4.70;;;2.60;;
58669;SDS011;44439;47.924;10.198;2023-04-25T11:10:29;1.05;;;0.65;;
58669;SDS011;44439;47.924;10.198;2023-04-25T11:13:16;1.35;;;1.20;;
58669;SDS011;44439;47.924;10.198;2023-04-25T11:16:05;1.73;;;1.02;;
58669;SDS011;44439;47.924;10.198;2023-04-25T11:18:52;2.85;;;1.92;;
58669;SDS011;44439;47.924;10.198;2023-04-25T11:21:38;0.95;;;0.70;;
58669;SDS011;44439;47.924;10.198;2023-04-25T11:24:27;1.95;;;1.33;;
58669;SDS011;44439;47.924;10.198;2023-04-25T11:27:13;4.47;;;2.40;;
58669;SDS011;44439;47.924;10.198;2023-04-25T11:29:59;2.63;;;1.40;;
58669;SDS011;44439;47.924;10.198;2023-04-25T11:32:44;0.50;;;0.50;;
58669;SDS011;44439;47.924;10.198;2023-04-25T11:35:30;1.40;;;0.80;;
58669;SDS011;44439;47.924;10.198;2023-04-25T11:38:16;6.68;;;2.67;;
58669;SDS011;44439;47.924;10.198;2023-04-25T11:41:02;1.00;;;0.95;;
58669;SDS011;44439;47.924;10.198;2023-04-25T11:43:48;0.50;;;0.50;;
58669;SDS011;44439;47.924;10.198;2023-04-25T11:46:34;0.65;;;0.43;;
58669;SDS011;44439;47.924;10.198;2023-04-25T11:49:20;0.35;;;0.35;;
58669;SDS011;44439;47.924;10.198;2023-04-25T11:52:07;0.43;;;0.43;;
58669;SDS011;44439;47.924;10.198;2023-04-25T11:54:52;1.48;;;0.30;;
58669;SDS011;44439;47.924;10.198;2023-04-25T11:57:38;0.73;;;0.63;;
58669;SDS011;44439;47.924;10.198;2023-04-25T12:00:25;4.43;;;3.00;;
58669;SDS011;44439;47.924;10.198;2023-04-25T12:03:11;0.65;;;0.60;;
58669;SDS011;44439;47.924;10.198;2023-04-25T12:06:02;0.40;;;0.40;;
58669;SDS011;44439;47.924;10.198;2023-04-25T12:11:49;0.82;;;0.63;;
58669;SDS011;44439;47.924;10.198;2023-04-25T12:14:39;0.45;;;0.40;;
58669;SDS011;44439;47.924;10.198;2023-04-25T12:17:25;0.80;;;0.52;;
58669;SDS011;44439;47.924;10.198;2023-04-25T12:20:14;0.50;;;0.50;;
58669;SDS011;44439;47.924;10.198;2023-04-25T12:23:08;1.58;;;0.90;;
58669;SDS011;44439;47.924;10.198;2023-04-25T12:25:55;1.17;;;0.80;;
58669;SDS011;44439;47.924;10.198;2023-04-25T12:28:44;0.70;;;0.70;;
58669;SDS011;44439;47.924;10.198;2023-04-25T12:31:32;0.73;;;0.73;;
58669;SDS011;44439;47.924;10.198;2023-04-25T12:34:18;1.27;;;1.13;;
58669;SDS011;44439;47.924;10.198;2023-04-25T12:37:04;0.82;;;0.60;;
58669;SDS011;44439;47.924;10.198;2023-04-25T12:39:50;0.75;;;0.55;;
58669;SDS011;44439;47.924;10.198;2023-04-25T12:42:36;2.20;;;1.60;;
58669;SDS011;44439;47.924;10.198;2023-04-25T12:45:22;0.57;;;0.40;;
58669;SDS011;44439;47.924;10.198;2023-04-25T12:48:08;0.70;;;0.50;;
58669;SDS011;44439;47.924;10.198;2023-04-25T12:50:53;0.40;;;0.30;;
58669;SDS011;44439;47.924;10.198;2023-04-25T12:53:39;1.77;;;1.13;;
58669;SDS011;44439;47.924;10.198;2023-04-25T12:56:26;0.90;;;0.73;;
58669;SDS011;44439;47.924;10.198;2023-04-25T12:59:12;0.47;;;0.47;;
58669;SDS011;44439;47.924;10.198;2023-04-25T13:01:58;0.30;;;0.30;;
58669;SDS011;44439;47.924;10.198;2023-04-25T13:04:44;0.60;;;0.60;;
58669;SDS011;44439;47.924;10.198;2023-04-25T13:07:30;0.40;;;0.25;;
58669;SDS011;44439;47.924;10.198;2023-04-25T13:10:16;0.30;;;0.30;;
58669;SDS011;44439;47.924;10.198;2023-04-25T13:13:03;0.88;;;0.38;;
58669;SDS011;44439;47.924;10.198;2023-04-25T13:15:48;1.15;;;0.50;;
58669;SDS011;44439;47.924;10.198;2023-04-25T13:18:34;1.67;;;0.20;;
58669;SDS011;44439;47.924;10.198;2023-04-25T13:21:20;0.40;;;0.40;;
58669;SDS011;44439;47.924;10.198;2023-04-25T13:24:06;0.50;;;0.30;;
58669;SDS011;44439;47.924;10.198;2023-04-25T13:26:52;0.20;;;0.20;;
58669;SDS011;44439;47.924;10.198;2023-04-25T13:29:37;0.30;;;0.30;;
58669;SDS011;44439;47.924;10.198;2023-04-25T13:32:25;0.50;;;0.40;;
58669;SDS011;44439;47.924;10.198;2023-04-25T13:35:12;0.20;;;0.20;;
58669;SDS011;44439;47.924;10.198;2023-04-25T13:37:59;0.20;;;0.20;;
58669;SDS011;44439;47.924;10.198;2023-04-25T13:40:45;0.20;;;0.20;;
58669;SDS011;44439;47.924;10.198;2023-04-25T13:43:31;0.22;;;0.15;;
58669;SDS011;44439;47.924;10.198;2023-04-25T13:46:17;0.20;;;0.10;;
58669;SDS011;44439;47.924;10.198;2023-04-25T13:49:03;3.97;;;1.42;;
58669;SDS011;44439;47.924;10.198;2023-04-25T13:51:49;0.20;;;0.20;;
58669;SDS011;44439;47.924;10.198;2023-04-25T13:54:35;0.03;;;0.03;;
58669;SDS011;44439;47.924;10.198;2023-04-25T13:57:20;1.33;;;0.30;;
58669;SDS011;44439;47.924;10.198;2023-04-25T14:00:07;1.15;;;0.50;;
58669;SDS011;44439;47.924;10.198;2023-04-25T14:02:54;1.63;;;0.63;;
58669;SDS011;44439;47.924;10.198;2023-04-25T14:05:39;0.68;;;0.60;;
58669;SDS011;44439;47.924;10.198;2023-04-25T14:08:26;0.10;;;0.10;;
58669;SDS011;44439;47.924;10.198;2023-04-25T14:11:11;0.20;;;0.20;;
58669;SDS011;44439;47.924;10.198;2023-04-25T14:13:57;0.25;;;0.20;;
58669;SDS011;44439;47.924;10.198;2023-04-25T14:16:43;0.10;;;0.10;;
58669;SDS011;44439;47.924;10.198;2023-04-25T14:19:28;0.10;;;0.10;;
58669;SDS011;44439;47.924;10.198;2023-04-25T14:22:15;1.80;;;0.90;;
58669;SDS011;44439;47.924;10.198;2023-04-25T14:25:00;0.50;;;0.32;;
58669;SDS011;44439;47.924;10.198;2023-04-25T14:27:48;0.80;;;0.40;;
58669;SDS011;44439;47.924;10.198;2023-04-25T14:30:35;6.93;;;2.92;;
58669;SDS011;44439;47.924;10.198;2023-04-25T14:33:24;0.85;;;0.47;;
58669;SDS011;44439;47.924;10.198;2023-04-25T14:36:10;7.78;;;3.35;;
58669;SDS011;44439;47.924;10.198;2023-04-25T14:38:56;3.03;;;1.33;;
58669;SDS011;44439;47.924;10.198;2023-04-25T14:41:42;2.55;;;1.50;;
58669;SDS011;44439;47.924;10.198;2023-04-25T14:44:30;0.40;;;0.35;;
58669;SDS011;44439;47.924;10.198;2023-04-25T14:47:17;1.45;;;0.20;;
58669;SDS011;44439;47.924;10.198;2023-04-25T14:50:03;0.22;;;0.13;;
58669;SDS011;44439;47.924;10.198;2023-04-25T14:52:50;0.93;;;0.30;;
58669;SDS011;44439;47.924;10.198;2023-04-25T14:55:35;1.08;;;0.20;;
58669;SDS011;44439;47.924;10.198;2023-04-25T14:58:21;0.30;;;0.30;;
58669;SDS011;44439;47.924;10.198;2023-04-25T15:01:07;0.32;;;0.30;;
58669;SDS011;44439;47.924;10.198;2023-04-25T15:03:53;0.28;;;0.20;;
58669;SDS011;44439;47.924;10.198;2023-04-25T15:06:39;0.45;;;0.30;;
58669;SDS011;44439;47.924;10.198;2023-04-25T15:09:24;0.43;;;0.22;;
58669;SDS011;44439;47.924;10.198;2023-04-25T15:12:10;0.30;;;0.20;;
58669;SDS011;44439;47.924;10.198;2023-04-25T15:14:56;0.10;;;0.10;;
58669;SDS011;44439;47.924;10.198;2023-04-25T15:17:42;0.20;;;0.20;;
58669;SDS011;44439;47.924;10.198;2023-04-25T15:20:27;0.25;;;0.20;;
58669;SDS011;44439;47.924;10.198;2023-04-25T15:23:13;0.40;;;0.40;;
58669;SDS011;44439;47.924;10.198;2023-04-25T15:25:59;0.65;;;0.50;;
58669;SDS011;44439;47.924;10.198;2023-04-25T15:28:45;0.57;;;0.50;;
58669;SDS011;44439;47.924;10.198;2023-04-25T15:31:31;1.00;;;0.17;;
58669;SDS011;44439;47.924;10.198;2023-04-25T15:34:16;1.23;;;0.60;;
58669;SDS011;44439;47.924;10.198;2023-04-25T15:37:02;1.02;;;0.82;;
58669;SDS011;44439;47.924;10.198;2023-04-25T15:39:48;1.00;;;0.90;;
58669;SDS011;44439;47.924;10.198;2023-04-25T15:42:46;0.43;;;0.40;;
58669;SDS011;44439;47.924;10.198;2023-04-25T15:45:35;4.80;;;2.72;;
58669;SDS011;44439;47.924;10.198;2023-04-25T15:48:22;4.03;;;2.75;;
58669;SDS011;44439;47.924;10.198;2023-04-25T15:51:07;1.48;;;1.38;;
58669;SDS011;44439;47.924;10.198;2023-04-25T15:53:54;2.63;;;1.13;;
58669;SDS011;44439;47.924;10.198;2023-04-25T15:56:40;0.30;;;0.30;;
58669;SDS011;44439;47.924;10.198;2023-04-25T15:59:26;0.30;;;0.30;;
58669;SDS011;44439;47.924;10.198;2023-04-25T16:02:12;0.30;;;0.30;;
58669;SDS011;44439;47.924;10.198;2023-04-25T16:04:58;1.67;;;0.60;;
58669;SDS011;44439;47.924;10.198;2023-04-25T16:07:44;0.50;;;0.30;;
58669;SDS011;44439;47.924;10.198;2023-04-25T16:10:31;0.52;;;0.52;;
58669;SDS011;44439;47.924;10.198;2023-04-25T16:13:17;0.80;;;0.40;;
58669;SDS011;44439;47.924;10.198;2023-04-25T16:16:03;0.63;;;0.63;;
58669;SDS011;44439;47.924;10.198;2023-04-25T16:18:48;1.70;;;1.20;;
58669;SDS011;44439;47.924;10.198;2023-04-25T16:21:34;2.08;;;0.80;;
58669;SDS011;44439;47.924;10.198;2023-04-25T16:24:20;2.17;;;1.13;;
58669;SDS011;44439;47.924;10.198;2023-04-25T16:27:05;0.43;;;0.43;;
58669;SDS011;44439;47.924;10.198;2023-04-25T16:29:51;2.05;;;0.80;;
58669;SDS011;44439;47.924;10.198;2023-04-25T16:32:37;9.15;;;6.80;;
58669;SDS011;44439;47.924;10.198;2023-04-25T16:35:24;1.25;;;0.82;;
58669;SDS011;44439;47.924;10.198;2023-04-25T16:38:10;0.50;;;0.50;;